createdAt,value
2019-01-03T00:00:36.100Z,-0.20
2019-01-03T00:01:16.815Z,-0.20
2019-01-03T00:02:03.431Z,-0.30
2019-01-03T00:02:47.377Z,-0.30
2019-01-03T00:03:39.515Z,-0.20
2019-01-03T00:04:29.355Z,-0.20
2019-01-03T00:05:23.285Z,-0.30
2019-01-03T00:06:01.245Z,-0.30
2019-01-03T00:06:41.947Z,-0.30
2019-01-03T00:07:38.007Z,-0.30
2019-01-03T00:08:16.335Z,-0.30
2019-01-03T00:08:57.547Z,-0.20
2019-01-03T00:09:41.835Z,-0.30
2019-01-03T00:10:19.846Z,-0.30
2019-01-03T00:11:06.816Z,-0.40
2019-01-03T00:11:54.689Z,-0.30
2019-01-03T00:12:41.439Z,-0.30
2019-01-03T00:13:34.738Z,-0.30
2019-01-03T00:14:29.110Z,-0.20
2019-01-03T00:15:07.177Z,-0.20
2019-01-03T00:15:45.438Z,-0.20
2019-01-03T00:16:23.430Z,-0.30
2019-01-03T00:17:19.494Z,-0.30
2019-01-03T00:18:13.810Z,-0.30
2019-01-03T00:19:09.681Z,-0.30
2019-01-03T00:20:03.644Z,-0.30
2019-01-03T00:20:41.600Z,-0.30
2019-01-03T00:21:28.889Z,-0.30
2019-01-03T00:22:10.040Z,-0.30
2019-01-03T00:23:00.589Z,-0.30
2019-01-03T00:23:38.759Z,-0.20
2019-01-03T00:24:26.050Z,0.00
2019-01-03T00:25:19.277Z,-0.10
2019-01-03T00:25:57.507Z,0.00
2019-01-03T00:26:35.607Z,0.00
2019-01-03T00:27:29.147Z,-0.10
2019-01-03T00:28:13.513Z,-0.20
2019-01-03T00:29:03.563Z,-0.20
2019-01-03T00:29:53.886Z,-0.30
2019-01-03T00:30:35.315Z,-0.30
2019-01-03T00:31:13.365Z,-0.40
2019-01-03T00:31:54.024Z,-0.50
2019-01-03T00:32:41.206Z,-0.50
2019-01-03T00:33:21.846Z,-0.40
2019-01-03T00:34:03.118Z,-0.40
2019-01-03T00:34:41.096Z,-0.40
2019-01-03T00:35:37.017Z,-0.40
2019-01-03T00:36:15.106Z,-0.30
2019-01-03T00:36:53.116Z,-0.30
2019-01-03T00:37:40.324Z,-0.30
2019-01-03T00:38:17.874Z,-0.40
2019-01-03T00:39:12.307Z,-0.40
2019-01-03T00:40:06.854Z,-0.40
2019-01-03T00:40:53.323Z,-0.30
2019-01-03T00:41:30.761Z,-0.30
2019-01-03T00:42:14.443Z,-0.30
2019-01-03T00:43:01.754Z,-0.30
2019-01-03T00:43:56.186Z,-0.30
2019-01-03T00:44:51.026Z,-0.30
2019-01-03T00:45:28.785Z,-0.20
2019-01-03T00:46:09.672Z,-0.40
2019-01-03T00:46:48.184Z,-0.40
2019-01-03T00:47:29.194Z,-0.30
2019-01-03T00:48:25.205Z,-0.30
2019-01-03T00:49:02.535Z,-0.30
2019-01-03T00:49:57.419Z,-0.20
2019-01-03T00:50:44.456Z,-0.20
2019-01-03T00:51:22.487Z,-0.10
2019-01-03T00:52:03.835Z,-0.10
2019-01-03T00:52:48.740Z,-0.10
2019-01-03T00:53:43.196Z,-0.20
2019-01-03T00:54:37.157Z,-0.20
2019-01-03T00:55:27.518Z,-0.20
2019-01-03T00:56:05.597Z,-0.30
2019-01-03T00:57:01.528Z,-0.30
2019-01-03T00:57:39.541Z,-0.30
2019-01-03T00:58:17.656Z,-0.30
2019-01-03T00:58:58.960Z,-0.30
2019-01-03T00:59:46.120Z,-0.30
2019-01-03T01:00:26.439Z,-0.40
2019-01-03T01:01:22.604Z,-0.50
2019-01-03T01:02:01.589Z,-0.50
2019-01-03T01:02:51.310Z,-0.50
2019-01-03T01:03:29.630Z,-0.60
2019-01-03T01:04:07.489Z,-0.60
2019-01-03T01:05:01.791Z,-0.60
2019-01-03T01:05:43.171Z,-0.50
2019-01-03T01:06:36.387Z,-0.40
2019-01-03T01:07:17.650Z,-0.30
2019-01-03T01:08:10.610Z,-0.40
2019-01-03T01:08:54.302Z,-0.40
2019-01-03T01:09:35.055Z,-0.50
2019-01-03T01:10:25.451Z,-0.40
2019-01-03T01:11:03.224Z,-0.50
2019-01-03T01:11:44.044Z,-0.60
2019-01-03T01:12:28.120Z,-0.60
2019-01-03T01:13:06.523Z,-0.60
2019-01-03T01:13:53.247Z,-0.60
2019-01-03T01:14:31.422Z,-0.60
2019-01-03T01:15:21.730Z,-0.60
2019-01-03T01:16:02.740Z,-0.60
2019-01-03T01:16:48.504Z,-0.60
2019-01-03T01:17:42.582Z,-0.60
2019-01-03T01:18:37.020Z,-0.50
2019-01-03T01:19:18.230Z,-0.50
2019-01-03T01:19:57.599Z,-0.60
2019-01-03T01:20:52.217Z,-0.60
2019-01-03T01:21:30.571Z,-0.50
2019-01-03T01:22:08.731Z,-0.60
2019-01-03T01:22:52.441Z,-0.70
2019-01-03T01:23:33.192Z,-0.70
2019-01-03T01:24:23.454Z,-0.60
2019-01-03T01:25:19.626Z,-0.60
2019-01-03T01:25:57.461Z,-0.60
2019-01-03T01:26:47.675Z,-0.70
2019-01-03T01:27:28.591Z,-0.70
2019-01-03T01:28:06.512Z,-0.60
2019-01-03T01:28:45.683Z,-0.70
2019-01-03T01:29:29.996Z,-0.70
2019-01-03T01:30:08.466Z,-0.70
2019-01-03T01:30:58.534Z,-0.80
2019-01-03T01:31:53.522Z,-0.70
2019-01-03T01:32:46.732Z,-0.80
2019-01-03T01:33:24.314Z,-0.80
2019-01-03T01:34:14.426Z,-0.80
2019-01-03T01:35:04.083Z,-0.80
2019-01-03T01:36:00.277Z,-0.80
2019-01-03T01:36:56.994Z,-0.70
2019-01-03T01:37:37.924Z,-0.70
2019-01-03T01:38:30.794Z,-0.70
2019-01-03T01:39:12.404Z,-0.60
2019-01-03T01:39:56.331Z,-0.60
2019-01-03T01:40:34.806Z,-0.70
2019-01-03T01:41:12.762Z,-0.70
2019-01-03T01:42:07.412Z,-0.70
2019-01-03T01:42:45.544Z,-0.70
2019-01-03T01:43:39.828Z,-0.80
2019-01-03T01:44:26.732Z,-0.80
2019-01-03T01:45:16.394Z,-0.80
2019-01-03T01:46:09.558Z,-0.70
2019-01-03T01:47:04.291Z,-0.60
2019-01-03T01:47:59.018Z,-0.50
2019-01-03T01:48:36.823Z,-0.50
2019-01-03T01:49:14.738Z,-0.50
2019-01-03T01:50:05.100Z,-0.60
2019-01-03T01:50:59.784Z,-0.60
2019-01-03T01:51:37.990Z,-0.80
2019-01-03T01:52:18.428Z,-0.80
2019-01-03T01:53:00.020Z,-0.80
2019-01-03T01:53:47.434Z,-0.70
2019-01-03T01:54:25.315Z,-0.60
2019-01-03T01:55:06.241Z,-0.60
2019-01-03T01:55:44.696Z,-0.70
2019-01-03T01:56:39.196Z,-0.70
2019-01-03T01:57:17.058Z,-0.80
2019-01-03T01:58:12.116Z,-0.80
2019-01-03T01:59:05.607Z,-0.80
2019-01-03T02:00:02.123Z,-0.80
2019-01-03T02:00:45.772Z,-0.80
2019-01-03T02:01:35.023Z,-0.70
2019-01-03T02:02:21.971Z,-0.70
2019-01-03T02:03:00.754Z,-0.70
2019-01-03T02:03:41.195Z,-0.70
2019-01-03T02:04:34.274Z,-0.80
2019-01-03T02:05:18.743Z,-0.70
2019-01-03T02:06:14.449Z,-0.70
2019-01-03T02:07:07.760Z,-0.70
2019-01-03T02:08:02.923Z,-0.80
2019-01-03T02:08:46.655Z,-0.70
2019-01-03T02:09:30.990Z,-0.70
2019-01-03T02:10:15.880Z,-0.70
2019-01-03T02:11:10.355Z,-0.70
2019-01-03T02:11:48.452Z,-0.70
2019-01-03T02:12:38.754Z,-0.70
2019-01-03T02:13:16.822Z,-0.70
2019-01-03T02:13:57.998Z,-0.80
2019-01-03T02:14:38.877Z,-0.80
2019-01-03T02:15:23.140Z,-0.90
2019-01-03T02:16:17.947Z,-0.90
2019-01-03T02:17:01.598Z,-0.90
2019-01-03T02:17:51.817Z,-0.80
2019-01-03T02:18:38.557Z,-0.80
2019-01-03T02:19:16.321Z,-0.70
2019-01-03T02:20:03.745Z,-0.60
2019-01-03T02:20:41.912Z,-0.70
2019-01-03T02:21:25.724Z,-0.70
2019-01-03T02:22:06.573Z,-0.80
2019-01-03T02:22:53.812Z,-0.80
2019-01-03T02:23:48.613Z,-0.80
2019-01-03T02:24:43.160Z,-0.70
2019-01-03T02:25:21.047Z,-0.80
2019-01-03T02:26:08.149Z,-0.90
2019-01-03T02:27:03.120Z,-0.90
2019-01-03T02:27:47.022Z,-1.00
2019-01-03T02:28:34.647Z,-1.00
2019-01-03T02:29:18.585Z,-1.00
2019-01-03T02:30:02.469Z,-1.00
2019-01-03T02:30:46.755Z,-1.10
2019-01-03T02:31:36.884Z,-1.00
2019-01-03T02:32:33.333Z,-1.00
2019-01-03T02:33:17.474Z,-1.00
2019-01-03T02:34:07.256Z,-0.80
2019-01-03T02:35:02.043Z,-0.80
2019-01-03T02:35:42.877Z,-0.90
2019-01-03T02:36:36.326Z,-0.90
2019-01-03T02:37:17.271Z,-0.90
2019-01-03T02:38:11.693Z,-0.90
2019-01-03T02:38:52.764Z,-0.80
2019-01-03T02:39:47.573Z,-0.70
2019-01-03T02:40:31.832Z,-0.70
2019-01-03T02:41:10.163Z,-0.80
2019-01-03T02:41:57.435Z,-0.90
2019-01-03T02:42:35.242Z,-0.90
2019-01-03T02:43:22.164Z,-0.90
2019-01-03T02:44:16.484Z,-1.00
2019-01-03T02:44:54.554Z,-1.00
2019-01-03T02:45:35.479Z,-1.00
2019-01-03T02:46:25.744Z,-1.00
2019-01-03T02:47:07.251Z,-1.00
2019-01-03T02:48:03.584Z,-1.00
2019-01-03T02:48:50.811Z,-1.00
2019-01-03T02:49:31.645Z,-1.00
2019-01-03T02:50:12.636Z,-0.90
2019-01-03T02:51:08.671Z,-0.80
2019-01-03T02:51:47.513Z,-0.80
2019-01-03T02:52:25.721Z,-0.70
2019-01-03T02:53:06.811Z,-0.70
2019-01-03T02:54:01.941Z,-0.70
2019-01-03T02:54:56.361Z,-0.80
2019-01-03T02:55:53.061Z,-0.80
2019-01-03T02:56:47.630Z,-0.80
2019-01-03T02:57:31.970Z,-0.90
2019-01-03T02:58:23.663Z,-0.90
2019-01-03T02:59:10.794Z,-0.80
2019-01-03T03:00:01.033Z,-0.90
2019-01-03T03:00:41.807Z,-0.90
2019-01-03T03:01:32.007Z,-0.80
2019-01-03T03:02:19.375Z,-0.90
2019-01-03T03:03:14.511Z,-0.80
2019-01-03T03:03:58.822Z,-0.80
2019-01-03T03:04:36.774Z,-0.80
2019-01-03T03:05:22.977Z,-0.90
2019-01-03T03:06:08.650Z,-0.90
2019-01-03T03:07:01.400Z,-0.90
2019-01-03T03:07:55.813Z,-0.90
2019-01-03T03:08:33.549Z,-1.00
2019-01-03T03:09:20.412Z,-0.90
2019-01-03T03:10:01.034Z,-0.90
2019-01-03T03:10:39.070Z,-0.90
2019-01-03T03:11:33.882Z,-0.90
2019-01-03T03:12:27.245Z,-0.90
2019-01-03T03:13:05.449Z,-1.00
2019-01-03T03:13:47.006Z,-1.00
2019-01-03T03:14:24.897Z,-1.00
2019-01-03T03:15:15.273Z,-0.90
2019-01-03T03:16:09.723Z,-0.80
2019-01-03T03:16:47.682Z,-0.80
2019-01-03T03:17:38.046Z,-0.70
2019-01-03T03:18:16.365Z,-0.70
2019-01-03T03:19:10.629Z,-0.60
2019-01-03T03:19:54.965Z,-0.70
2019-01-03T03:20:36.036Z,-0.70
2019-01-03T03:21:22.705Z,-0.70
2019-01-03T03:22:03.354Z,-0.80
2019-01-03T03:22:41.889Z,-0.90
2019-01-03T03:23:29.441Z,-0.80
2019-01-03T03:24:07.135Z,-0.90
2019-01-03T03:24:54.386Z,-0.90
2019-01-03T03:25:35.432Z,-0.90
2019-01-03T03:26:18.929Z,-0.90
2019-01-03T03:26:57.115Z,-1.00
2019-01-03T03:27:51.295Z,-0.90
2019-01-03T03:28:41.960Z,-1.00
2019-01-03T03:29:22.647Z,-1.00
2019-01-03T03:30:09.440Z,-0.90
2019-01-03T03:30:59.024Z,-0.80
2019-01-03T03:31:53.439Z,-0.80
2019-01-03T03:32:48.261Z,-0.80
2019-01-03T03:33:43.482Z,-0.80
2019-01-03T03:34:33.840Z,-0.90
2019-01-03T03:35:28.501Z,-0.80
2019-01-03T03:36:09.709Z,-0.80
2019-01-03T03:37:04.027Z,-0.70
2019-01-03T03:37:48.249Z,-0.80
2019-01-03T03:38:29.075Z,-0.70
2019-01-03T03:39:10.895Z,-0.70
2019-01-03T03:40:06.237Z,-0.80
2019-01-03T03:41:02.613Z,-0.90
2019-01-03T03:41:56.131Z,-0.80
2019-01-03T03:42:43.058Z,-0.80
2019-01-03T03:43:33.503Z,-0.90
2019-01-03T03:44:20.517Z,-1.00
2019-01-03T03:45:07.565Z,-1.10
2019-01-03T03:45:48.394Z,-1.10
2019-01-03T03:46:30.697Z,-1.10
2019-01-03T03:47:11.591Z,-1.10
2019-01-03T03:48:07.806Z,-1.10
2019-01-03T03:49:02.580Z,-1.10
2019-01-03T03:49:40.411Z,-1.10
2019-01-03T03:50:21.229Z,-1.20
2019-01-03T03:51:08.197Z,-1.10
2019-01-03T03:51:49.183Z,-1.00
2019-01-03T03:52:43.430Z,-1.00
2019-01-03T03:53:38.123Z,-1.00
2019-01-03T03:54:33.085Z,-1.00
2019-01-03T03:55:14.812Z,-1.00
2019-01-03T03:56:09.520Z,-0.90
2019-01-03T03:57:06.202Z,-0.90
2019-01-03T03:57:44.342Z,-0.80
2019-01-03T03:58:22.546Z,-0.90
2019-01-03T03:59:08.157Z,-0.90
2019-01-03T04:00:02.865Z,-0.90
2019-01-03T04:00:57.789Z,-1.00
2019-01-03T04:01:35.824Z,-0.90
2019-01-03T04:02:22.807Z,-0.90
2019-01-03T04:03:03.685Z,-1.00
2019-01-03T04:03:59.742Z,-1.00
2019-01-03T04:04:43.985Z,-1.00
2019-01-03T04:05:33.600Z,-1.10
2019-01-03T04:06:17.769Z,-1.10
2019-01-03T04:07:12.390Z,-1.10
2019-01-03T04:07:50.353Z,-1.10
2019-01-03T04:08:38.705Z,-1.10
2019-01-03T04:09:33.908Z,-1.20
2019-01-03T04:10:11.996Z,-1.20
2019-01-03T04:10:56.256Z,-1.30
2019-01-03T04:11:37.137Z,-1.40
2019-01-03T04:12:33.791Z,-1.30
2019-01-03T04:13:14.858Z,-1.30
2019-01-03T04:13:52.944Z,-1.20
2019-01-03T04:14:30.863Z,-1.30
2019-01-03T04:15:15.173Z,-1.30
2019-01-03T04:16:05.694Z,-1.30
2019-01-03T04:16:49.413Z,-1.20
2019-01-03T04:17:36.298Z,-1.20
2019-01-03T04:18:29.639Z,-1.10
2019-01-03T04:19:24.401Z,-1.10
2019-01-03T04:20:02.412Z,-1.10
2019-01-03T04:20:56.353Z,-1.00
2019-01-03T04:21:43.991Z,-1.00
2019-01-03T04:22:22.124Z,-1.10
2019-01-03T04:23:06.560Z,-1.10
2019-01-03T04:23:50.148Z,-1.00
2019-01-03T04:24:30.786Z,-0.90
2019-01-03T04:25:08.758Z,-0.90
2019-01-03T04:25:49.678Z,-1.00
2019-01-03T04:26:36.615Z,-1.00
2019-01-03T04:27:29.787Z,-1.10
2019-01-03T04:28:08.084Z,-1.00
2019-01-03T04:28:55.682Z,-1.00
2019-01-03T04:29:42.843Z,-1.00
2019-01-03T04:30:21.603Z,-1.00
2019-01-03T04:31:02.374Z,-1.00
2019-01-03T04:31:49.542Z,-1.00
2019-01-03T04:32:44.031Z,-1.10
2019-01-03T04:33:27.942Z,-1.10
2019-01-03T04:34:22.560Z,-1.10
2019-01-03T04:35:00.925Z,-1.10
2019-01-03T04:35:55.635Z,-1.20
2019-01-03T04:36:33.899Z,-1.30
2019-01-03T04:37:26.671Z,-1.30
2019-01-03T04:38:17.057Z,-1.30
2019-01-03T04:38:54.953Z,-1.30
2019-01-03T04:39:44.967Z,-1.20
2019-01-03T04:40:25.836Z,-1.20
2019-01-03T04:41:06.775Z,-1.20
2019-01-03T04:42:00.561Z,-1.20
2019-01-03T04:42:44.776Z,-1.20
2019-01-03T04:43:39.674Z,-1.20
2019-01-03T04:44:23.879Z,-1.20
2019-01-03T04:45:14.336Z,-1.20
2019-01-03T04:46:07.234Z,-1.10
2019-01-03T04:47:00.796Z,-1.10
2019-01-03T04:47:55.082Z,-1.10
2019-01-03T04:48:33.506Z,-1.10
2019-01-03T04:49:23.705Z,-1.10
2019-01-03T04:50:04.526Z,-1.20
2019-01-03T04:50:52.083Z,-1.30
2019-01-03T04:51:29.788Z,-1.30
2019-01-03T04:52:24.054Z,-1.30
2019-01-03T04:53:11.214Z,-1.20
2019-01-03T04:53:48.989Z,-1.20
2019-01-03T04:54:29.489Z,-1.30
2019-01-03T04:55:13.950Z,-1.30
2019-01-03T04:56:10.548Z,-1.20
2019-01-03T04:57:04.910Z,-1.20
2019-01-03T04:57:55.388Z,-1.10
2019-01-03T04:58:35.968Z,-1.10
2019-01-03T04:59:16.668Z,-1.10
2019-01-03T05:00:07.167Z,-1.10
2019-01-03T05:00:45.543Z,-1.10
2019-01-03T05:01:58.977Z,-1.20
2019-01-03T05:02:53.618Z,-1.20
2019-01-03T05:03:34.584Z,-1.20
2019-01-03T05:04:33.265Z,-1.10
2019-01-03T05:05:11.263Z,-1.10
2019-01-03T05:05:49.802Z,-1.10
2019-01-03T05:06:27.564Z,-1.20
2019-01-03T05:07:22.403Z,-1.10
2019-01-03T05:08:02.933Z,-1.10
2019-01-03T05:08:44.064Z,-1.10
2019-01-03T05:09:37.272Z,-1.10
2019-01-03T05:10:15.372Z,-1.20
2019-01-03T05:10:56.735Z,-1.10
2019-01-03T05:11:40.852Z,-1.20
2019-01-03T05:12:21.651Z,-1.10
2019-01-03T05:13:09.077Z,-1.10
2019-01-03T05:13:49.565Z,-1.00
2019-01-03T05:14:33.333Z,-1.00
2019-01-03T05:15:11.430Z,-1.00
2019-01-03T05:15:49.631Z,-1.00
2019-01-03T05:16:44.192Z,-1.00
2019-01-03T05:17:22.202Z,-1.00
2019-01-03T05:18:18.812Z,-1.00
2019-01-03T05:18:59.634Z,-1.00
2019-01-03T05:19:42.971Z,-1.00
2019-01-03T05:20:20.986Z,-1.00
2019-01-03T05:21:14.285Z,-1.00
2019-01-03T05:22:04.422Z,-1.00
2019-01-03T05:22:51.770Z,-1.10
2019-01-03T05:23:42.023Z,-1.20
2019-01-03T05:24:19.987Z,-1.20
2019-01-03T05:25:00.222Z,-1.30
2019-01-03T05:25:41.243Z,-1.30
2019-01-03T05:26:19.022Z,-1.30
2019-01-03T05:27:13.512Z,-1.30
2019-01-03T05:27:51.252Z,-1.30
2019-01-03T05:28:29.382Z,-1.20
2019-01-03T05:29:19.922Z,-1.20
2019-01-03T05:30:03.490Z,-1.20
2019-01-03T05:30:56.764Z,-1.20
2019-01-03T05:31:34.683Z,-1.20
2019-01-03T05:32:30.282Z,-1.20
2019-01-03T05:33:17.725Z,-1.20
2019-01-03T05:34:11.183Z,-1.10
2019-01-03T05:35:04.432Z,-1.10
2019-01-03T05:35:57.715Z,-1.20
2019-01-03T05:36:35.483Z,-1.30
2019-01-03T05:37:16.502Z,-1.30
2019-01-03T05:38:03.323Z,-1.20
2019-01-03T05:38:57.102Z,-1.20
2019-01-03T05:39:51.694Z,-1.30
2019-01-03T05:40:46.512Z,-1.20
2019-01-03T05:41:24.452Z,-1.30
2019-01-03T05:42:02.614Z,-1.30
2019-01-03T05:42:57.242Z,-1.20
2019-01-03T05:43:47.021Z,-1.20
2019-01-03T05:44:35.203Z,-1.20
2019-01-03T05:45:16.413Z,-1.20
2019-01-03T05:45:54.764Z,-1.20
2019-01-03T05:46:32.752Z,-1.30
2019-01-03T05:47:27.234Z,-1.30
2019-01-03T05:48:15.021Z,-1.30
2019-01-03T05:48:59.175Z,-1.30
2019-01-03T05:49:37.201Z,-1.30
2019-01-03T05:50:15.611Z,-1.30
2019-01-03T05:51:02.800Z,-1.40
2019-01-03T05:51:49.651Z,-1.40
2019-01-03T05:52:27.683Z,-1.40
2019-01-03T05:53:18.042Z,-1.40
2019-01-03T05:54:05.210Z,-1.40
2019-01-03T05:54:43.018Z,-1.40
2019-01-03T05:55:38.019Z,-1.40
2019-01-03T05:56:34.950Z,-1.40
2019-01-03T05:57:18.725Z,-1.20
2019-01-03T05:57:56.395Z,-1.20
2019-01-03T05:58:35.582Z,-1.10
2019-01-03T05:59:20.119Z,-1.00
2019-01-03T05:59:58.128Z,-1.10
2019-01-03T06:00:41.970Z,-1.20
2019-01-03T06:01:36.135Z,-1.20
2019-01-03T06:02:20.228Z,-1.10
2019-01-03T06:03:14.794Z,-1.10
2019-01-03T06:04:07.590Z,-1.10
2019-01-03T06:05:02.072Z,-1.00
2019-01-03T06:05:39.968Z,-1.10
2019-01-03T06:06:27.122Z,-1.20
2019-01-03T06:07:21.547Z,-1.20
2019-01-03T06:08:02.240Z,-1.30
2019-01-03T06:08:55.575Z,-1.20
2019-01-03T06:09:33.476Z,-1.20
2019-01-03T06:10:23.507Z,-1.20
2019-01-03T06:11:07.471Z,-1.20
2019-01-03T06:11:54.418Z,-1.30
2019-01-03T06:12:37.487Z,-1.30
2019-01-03T06:13:15.780Z,-1.40
2019-01-03T06:13:56.729Z,-1.40
2019-01-03T06:14:43.945Z,-1.50
2019-01-03T06:15:31.314Z,-1.40
2019-01-03T06:16:26.123Z,-1.40
2019-01-03T06:17:20.764Z,-1.40
2019-01-03T06:18:14.785Z,-1.40
2019-01-03T06:19:07.781Z,-1.30
2019-01-03T06:19:54.863Z,-1.10
2019-01-03T06:20:51.261Z,-1.10
2019-01-03T06:21:32.002Z,-1.10
2019-01-03T06:22:24.491Z,-1.20
2019-01-03T06:23:05.001Z,-1.10
2019-01-03T06:23:51.788Z,-1.20
2019-01-03T06:24:30.500Z,-1.30
2019-01-03T06:25:18.027Z,-1.20
2019-01-03T06:26:12.281Z,-1.20
2019-01-03T06:26:50.123Z,-1.30
2019-01-03T06:27:37.454Z,-1.40
2019-01-03T06:28:15.470Z,-1.30
2019-01-03T06:28:56.448Z,-1.30
2019-01-03T06:29:40.865Z,-1.20
2019-01-03T06:30:37.650Z,-1.20
2019-01-03T06:31:15.547Z,-1.20
2019-01-03T06:32:09.477Z,-1.30
2019-01-03T06:33:03.710Z,-1.30
2019-01-03T06:33:44.987Z,-1.30
2019-01-03T06:34:32.450Z,-1.30
2019-01-03T06:35:10.465Z,-1.30
2019-01-03T06:36:04.736Z,-1.30
2019-01-03T06:36:42.849Z,-1.40
2019-01-03T06:37:26.882Z,-1.40
2019-01-03T06:38:21.346Z,-1.40
2019-01-03T06:38:59.506Z,-1.40
2019-01-03T06:39:43.374Z,-1.40
2019-01-03T06:40:24.399Z,-1.30
2019-01-03T06:41:19.253Z,-1.20
2019-01-03T06:42:15.255Z,-1.20
2019-01-03T06:42:56.561Z,-1.10
2019-01-03T06:43:40.669Z,-1.10
2019-01-03T06:44:18.912Z,-1.20
2019-01-03T06:44:59.631Z,-1.10
2019-01-03T06:45:43.078Z,-1.10
2019-01-03T06:46:21.288Z,-1.10
2019-01-03T06:47:16.219Z,-1.10
2019-01-03T06:47:56.591Z,-1.00
2019-01-03T06:48:50.840Z,-1.00
2019-01-03T06:49:46.059Z,-1.00
2019-01-03T06:50:30.663Z,-1.10
2019-01-03T06:51:24.751Z,-1.10
2019-01-03T06:52:18.552Z,-1.00
2019-01-03T06:53:14.646Z,-1.00
2019-01-03T06:53:55.542Z,-1.00
2019-01-03T06:54:50.382Z,-1.00
2019-01-03T06:55:28.572Z,-1.00
2019-01-03T06:56:06.694Z,-1.00
2019-01-03T06:57:01.663Z,-1.00
2019-01-03T06:57:48.788Z,-1.00
2019-01-03T06:58:43.307Z,-1.10
2019-01-03T06:59:24.170Z,-1.00
2019-01-03T07:00:18.535Z,-1.00
2019-01-03T07:01:08.797Z,-1.00
2019-01-03T07:02:02.524Z,-1.10
2019-01-03T07:02:40.220Z,-1.10
2019-01-03T07:03:21.183Z,-1.20
2019-01-03T07:04:16.127Z,-1.30
2019-01-03T07:04:53.967Z,-1.30
2019-01-03T07:05:50.471Z,-1.30
2019-01-03T07:06:45.619Z,-1.20
2019-01-03T07:07:32.886Z,-1.20
2019-01-03T07:08:24.262Z,-1.30
2019-01-03T07:09:02.427Z,-1.30
2019-01-03T07:09:46.316Z,-1.20
2019-01-03T07:10:36.510Z,-1.20
2019-01-03T07:11:29.871Z,-1.30
2019-01-03T07:12:23.224Z,-1.20
2019-01-03T07:13:05.038Z,-1.20
2019-01-03T07:13:59.536Z,-1.30
2019-01-03T07:14:43.936Z,-1.40
2019-01-03T07:15:36.959Z,-1.40
2019-01-03T07:16:15.460Z,-1.40
2019-01-03T07:16:53.015Z,-1.40
2019-01-03T07:17:34.008Z,-1.40
2019-01-03T07:18:17.914Z,-1.40
2019-01-03T07:18:55.753Z,-1.50
2019-01-03T07:19:50.368Z,-1.50
2019-01-03T07:20:45.239Z,-1.50
2019-01-03T07:21:27.429Z,-1.40
2019-01-03T07:22:08.771Z,-1.40
2019-01-03T07:22:56.274Z,-1.40
2019-01-03T07:23:51.438Z,-1.40
2019-01-03T07:24:30.266Z,-1.40
2019-01-03T07:25:26.578Z,-1.40
2019-01-03T07:26:13.760Z,-1.40
2019-01-03T07:26:55.110Z,-1.40
2019-01-03T07:27:49.472Z,-1.30
2019-01-03T07:28:43.055Z,-1.30
2019-01-03T07:29:36.286Z,-1.30
2019-01-03T07:30:32.616Z,-1.30
2019-01-03T07:31:13.529Z,-1.30
2019-01-03T07:32:08.217Z,-1.40
2019-01-03T07:32:46.012Z,-1.40
2019-01-03T07:33:42.615Z,-1.40
2019-01-03T07:34:37.405Z,-1.40
2019-01-03T07:35:32.585Z,-1.50
2019-01-03T07:36:16.904Z,-1.50
2019-01-03T07:37:04.012Z,-1.50
2019-01-03T07:37:51.002Z,-1.50
2019-01-03T07:38:28.732Z,-1.50
2019-01-03T07:39:13.578Z,-1.50
2019-01-03T07:39:51.333Z,-1.60
2019-01-03T07:40:45.653Z,-1.50
2019-01-03T07:41:33.025Z,-1.60
2019-01-03T07:42:27.753Z,-1.60
2019-01-03T07:43:14.633Z,-1.50
2019-01-03T07:44:09.542Z,-1.50
2019-01-03T07:44:56.589Z,-1.50
2019-01-03T07:45:50.959Z,-1.40
2019-01-03T07:46:32.205Z,-1.40
2019-01-03T07:47:11.625Z,-1.40
2019-01-03T07:47:49.940Z,-1.40
2019-01-03T07:48:40.346Z,-1.40
2019-01-03T07:49:27.406Z,-1.40
2019-01-03T07:50:05.665Z,-1.50
2019-01-03T07:50:44.021Z,-1.40
2019-01-03T07:51:38.498Z,-1.40
2019-01-03T07:52:16.652Z,-1.40
2019-01-03T07:53:10.729Z,-1.40
2019-01-03T07:54:01.839Z,-1.30
2019-01-03T07:54:56.927Z,-1.30
2019-01-03T07:55:50.315Z,-1.30
2019-01-03T07:56:43.453Z,-1.40
2019-01-03T07:57:36.703Z,-1.40
2019-01-03T07:58:33.868Z,-1.40
2019-01-03T07:59:28.630Z,-1.40
2019-01-03T08:00:07.460Z,-1.40
2019-01-03T08:00:57.909Z,-1.40
2019-01-03T08:01:38.997Z,-1.30
2019-01-03T08:02:23.266Z,-1.30
2019-01-03T08:03:19.780Z,-1.30
2019-01-03T08:04:13.860Z,-1.20
2019-01-03T08:04:52.024Z,-1.00
2019-01-03T08:05:48.755Z,-1.10
2019-01-03T08:06:29.373Z,-1.10
2019-01-03T08:07:07.692Z,-1.20
2019-01-03T08:07:45.750Z,-1.30
2019-01-03T08:08:40.281Z,-1.30
2019-01-03T08:09:36.869Z,-1.40
2019-01-03T08:10:31.622Z,-1.30
2019-01-03T08:11:09.514Z,-1.20
2019-01-03T08:12:02.370Z,-1.20
2019-01-03T08:12:56.491Z,-1.30
2019-01-03T08:13:50.929Z,-1.20
2019-01-03T08:14:29.084Z,-1.20
2019-01-03T08:15:23.911Z,-1.30
2019-01-03T08:16:18.082Z,-1.30
2019-01-03T08:17:04.879Z,-1.20
2019-01-03T08:17:45.572Z,-1.20
2019-01-03T08:18:23.419Z,-1.20
2019-01-03T08:19:19.886Z,-1.30
2019-01-03T08:19:57.947Z,-1.20
2019-01-03T08:20:51.701Z,-1.20
2019-01-03T08:21:29.769Z,-1.30
2019-01-03T08:22:24.346Z,-1.30
2019-01-03T08:23:11.484Z,-1.30
2019-01-03T08:23:54.891Z,-1.30
2019-01-03T08:24:47.930Z,-1.30
2019-01-03T08:25:32.427Z,-1.30
2019-01-03T08:26:22.755Z,-1.30
2019-01-03T08:27:00.993Z,-1.30
2019-01-03T08:27:44.563Z,-1.30
2019-01-03T08:28:25.704Z,-1.30
2019-01-03T08:29:16.277Z,-1.40
2019-01-03T08:30:03.316Z,-1.30
2019-01-03T08:30:50.622Z,-1.30
2019-01-03T08:31:28.601Z,-1.40
2019-01-03T08:32:12.425Z,-1.30
2019-01-03T08:32:53.309Z,-1.30
2019-01-03T08:33:47.996Z,-1.30
2019-01-03T08:34:29.026Z,-1.30
2019-01-03T08:35:09.987Z,-1.30
2019-01-03T08:35:48.322Z,-1.40
2019-01-03T08:36:43.120Z,-1.30
2019-01-03T08:37:20.640Z,-1.20
2019-01-03T08:38:01.308Z,-1.30
2019-01-03T08:38:42.307Z,-1.30
2019-01-03T08:39:37.285Z,-1.30
2019-01-03T08:40:34.719Z,-1.40
2019-01-03T08:41:28.177Z,-1.30
2019-01-03T08:42:08.874Z,-1.30
2019-01-03T08:43:03.818Z,-1.30
2019-01-03T08:43:58.173Z,-1.20
2019-01-03T08:44:52.335Z,-1.10
2019-01-03T08:45:42.585Z,-1.00
2019-01-03T08:46:21.102Z,-1.10
2019-01-03T08:47:16.138Z,-1.20
2019-01-03T08:47:57.346Z,-1.10
2019-01-03T08:48:47.585Z,-1.10
2019-01-03T08:49:25.402Z,-1.20
2019-01-03T08:50:09.141Z,-1.10
2019-01-03T08:50:50.511Z,-1.00
2019-01-03T08:51:31.386Z,-1.00
2019-01-03T08:52:27.850Z,-1.00
2019-01-03T08:53:12.193Z,-1.00
2019-01-03T08:54:06.602Z,-1.00
2019-01-03T08:54:47.965Z,-1.00
2019-01-03T08:55:42.588Z,-1.00
2019-01-03T08:56:32.984Z,-1.10
2019-01-03T08:57:24.285Z,-1.10
2019-01-03T08:58:11.180Z,-1.00
2019-01-03T08:58:49.332Z,-0.90
2019-01-03T08:59:27.602Z,-0.90
2019-01-03T09:00:11.073Z,-1.00
2019-01-03T09:01:01.629Z,-1.00
2019-01-03T09:01:48.231Z,-1.00
2019-01-03T09:02:28.902Z,-1.10
2019-01-03T09:03:12.989Z,-1.00
2019-01-03T09:03:50.751Z,-0.90
2019-01-03T09:04:45.286Z,-0.80
2019-01-03T09:05:35.333Z,-0.80
2019-01-03T09:06:28.543Z,-0.80
2019-01-03T09:07:19.093Z,-0.90
2019-01-03T09:07:57.106Z,-0.90
2019-01-03T09:08:52.871Z,-0.60
2019-01-03T09:09:43.058Z,-0.40
2019-01-03T09:10:20.758Z,0.00
2019-01-03T09:11:14.667Z,0.20
2019-01-03T09:12:10.985Z,0.20
2019-01-03T09:12:58.051Z,0.00
2019-01-03T09:13:38.157Z,-0.10
2019-01-03T09:14:31.932Z,-0.20
2019-01-03T09:15:25.341Z,-0.20
2019-01-03T09:16:03.241Z,-0.40
2019-01-03T09:16:42.498Z,-0.30
2019-01-03T09:17:32.542Z,-0.30
2019-01-03T09:18:28.116Z,-0.30
2019-01-03T09:19:05.968Z,-0.30
2019-01-03T09:19:49.310Z,-0.50
2019-01-03T09:20:29.470Z,-0.60
2019-01-03T09:21:15.837Z,-0.70
2019-01-03T09:21:56.267Z,-0.70
2019-01-03T09:22:34.250Z,-0.70
2019-01-03T09:23:28.932Z,-0.70
2019-01-03T09:24:22.987Z,-0.70
2019-01-03T09:25:15.760Z,-0.70
2019-01-03T09:26:06.235Z,-0.60
2019-01-03T09:26:47.409Z,-0.60
2019-01-03T09:27:42.053Z,-0.60
2019-01-03T09:28:28.766Z,-0.60
2019-01-03T09:29:12.230Z,-0.70
2019-01-03T09:30:02.499Z,-0.70
2019-01-03T09:30:43.800Z,-0.80
2019-01-03T09:31:27.766Z,-0.90
2019-01-03T09:32:08.507Z,-0.80
2019-01-03T09:32:46.806Z,-0.80
2019-01-03T09:33:40.604Z,-0.80
2019-01-03T09:34:27.923Z,-0.90
2019-01-03T09:35:06.004Z,-0.90
2019-01-03T09:35:44.453Z,-0.90
2019-01-03T09:36:28.250Z,-0.90
2019-01-03T09:37:09.189Z,-0.90
2019-01-03T09:37:46.649Z,-0.90
2019-01-03T09:38:41.485Z,-1.00
2019-01-03T09:39:19.646Z,-1.00
2019-01-03T09:40:00.960Z,-1.00
2019-01-03T09:40:44.378Z,-1.00
2019-01-03T09:41:38.638Z,-1.00
2019-01-03T09:42:33.168Z,-1.00
2019-01-03T09:43:19.733Z,-1.00
2019-01-03T09:43:57.727Z,-0.90
2019-01-03T09:44:41.615Z,-0.80
2019-01-03T09:45:17.696Z,-0.80
2019-01-03T09:45:54.951Z,-0.80
2019-01-03T09:46:31.486Z,-0.90
2019-01-03T09:47:07.955Z,-0.80
2019-01-03T09:47:44.788Z,-0.80
2019-01-03T09:48:21.594Z,-0.90
2019-01-03T09:48:58.615Z,-1.00
2019-01-03T09:49:35.567Z,-1.00
2019-01-03T09:50:12.496Z,-1.00
2019-01-03T09:50:50.212Z,-0.90
2019-01-03T09:51:28.086Z,-0.90
2019-01-03T09:52:04.343Z,-0.80
2019-01-03T09:52:41.054Z,-0.80
2019-01-03T09:53:17.832Z,-0.70
2019-01-03T09:53:54.512Z,-0.60
2019-01-03T09:54:31.592Z,-0.60
2019-01-03T09:55:08.460Z,-0.60